createdAt,value
2018-11-07T00:01:03.997Z,27.80
2018-11-07T00:03:31.558Z,25.93
2018-11-07T00:05:59.080Z,24.30
2018-11-07T00:08:26.758Z,26.47
2018-11-07T00:10:54.155Z,26.57
2018-11-07T00:13:22.421Z,26.57
2018-11-07T00:15:50.059Z,26.20
2018-11-07T00:18:18.623Z,26.23
2018-11-07T00:20:46.164Z,25.27
2018-11-07T00:23:13.863Z,23.80
2018-11-07T00:25:41.487Z,25.77
2018-11-07T00:28:08.950Z,23.80
2018-11-07T00:30:36.580Z,21.63
2018-11-07T00:33:04.660Z,22.50
2018-11-07T00:35:32.290Z,22.70
2018-11-07T00:37:59.756Z,23.67
2018-11-07T00:40:27.313Z,21.83
2018-11-07T00:42:55.042Z,23.50
2018-11-07T00:45:22.515Z,20.93
2018-11-07T00:47:50.118Z,20.20
2018-11-07T00:50:18.554Z,22.30
2018-11-07T00:52:46.700Z,19.00
2018-11-07T00:55:15.623Z,22.40
2018-11-07T00:57:43.537Z,20.40
2018-11-07T01:00:13.897Z,21.20
2018-11-07T01:02:42.076Z,19.50
2018-11-07T01:05:11.202Z,19.50
2018-11-07T01:07:38.933Z,21.10
2018-11-07T01:10:07.442Z,21.37
2018-11-07T01:12:35.100Z,20.30
2018-11-07T01:15:03.121Z,19.10
2018-11-07T01:17:31.414Z,19.47
2018-11-07T01:19:59.657Z,19.23
2018-11-07T01:22:28.084Z,20.30
2018-11-07T01:24:55.799Z,20.30
2018-11-07T01:27:23.452Z,19.70
2018-11-07T01:29:50.929Z,18.80
2018-11-07T01:32:19.471Z,21.57
2018-11-07T01:34:48.146Z,19.37
2018-11-07T01:37:16.407Z,17.80
2018-11-07T01:39:45.263Z,17.60
2018-11-07T01:42:13.806Z,18.23
2018-11-07T01:44:41.970Z,16.30
2018-11-07T01:47:10.036Z,18.60
2018-11-07T01:49:37.797Z,15.80
2018-11-07T01:52:06.612Z,15.70
2018-11-07T01:54:34.665Z,17.57
2018-11-07T01:57:02.972Z,15.07
2018-11-07T01:59:31.378Z,16.60
2018-11-07T02:01:59.049Z,16.93
2018-11-07T02:04:26.746Z,17.03
2018-11-07T02:06:54.191Z,14.17
2018-11-07T02:09:21.809Z,14.83
2018-11-07T02:11:49.393Z,14.47
2018-11-07T02:14:16.937Z,16.80
2018-11-07T02:16:44.507Z,16.90
2018-11-07T02:19:11.960Z,15.77
2018-11-07T02:21:40.244Z,15.10
2018-11-07T02:24:07.910Z,14.80
2018-11-07T02:26:35.554Z,15.63
2018-11-07T02:29:03.129Z,14.37
2018-11-07T02:31:30.756Z,13.87
2018-11-07T02:33:58.293Z,13.47
2018-11-07T02:36:25.902Z,14.00
2018-11-07T02:38:53.424Z,14.57
2018-11-07T02:41:21.039Z,15.30
2018-11-07T02:43:48.531Z,14.43
2018-11-07T02:46:16.187Z,15.30
2018-11-07T02:48:43.898Z,14.33
2018-11-07T02:51:11.589Z,14.40
2018-11-07T02:53:39.218Z,13.97
2018-11-07T02:56:06.639Z,15.30
2018-11-07T02:58:34.105Z,15.07
2018-11-07T03:01:01.537Z,14.40
2018-11-07T03:03:29.593Z,13.53
2018-11-07T03:05:58.148Z,16.03
2018-11-07T03:08:25.684Z,14.87
2018-11-07T03:10:53.341Z,14.57
2018-11-07T03:13:20.984Z,14.17
2018-11-07T03:15:48.502Z,14.60
2018-11-07T03:18:17.040Z,13.80
2018-11-07T03:20:44.541Z,14.30
2018-11-07T03:23:12.032Z,14.40
2018-11-07T03:25:39.584Z,13.93
2018-11-07T03:28:07.246Z,15.30
2018-11-07T03:30:35.013Z,14.50
2018-11-07T03:33:02.489Z,14.93
2018-11-07T03:35:29.998Z,15.40
2018-11-07T03:37:57.414Z,13.77
2018-11-07T03:40:26.129Z,13.80
2018-11-07T03:42:54.227Z,14.77
2018-11-07T03:45:26.247Z,14.90
2018-11-07T03:47:54.356Z,13.60
2018-11-07T03:50:21.842Z,14.57
2018-11-07T03:52:49.340Z,14.13
2018-11-07T03:55:19.008Z,14.60
2018-11-07T03:57:47.581Z,15.83
2018-11-07T04:00:15.954Z,14.80
2018-11-07T04:02:44.356Z,12.90
2018-11-07T04:05:12.172Z,14.00
2018-11-07T04:07:41.647Z,12.70
2018-11-07T04:10:09.339Z,12.93
2018-11-07T04:12:36.831Z,12.83
2018-11-07T04:15:05.983Z,14.53
2018-11-07T04:17:33.551Z,12.93
2018-11-07T04:20:01.024Z,13.50
2018-11-07T04:22:28.565Z,12.10
2018-11-07T04:24:56.063Z,12.47
2018-11-07T04:27:23.607Z,12.30
2018-11-07T04:29:51.179Z,12.70
2018-11-07T04:32:18.811Z,14.10
2018-11-07T04:34:46.364Z,12.67
2018-11-07T04:37:13.969Z,13.73
2018-11-07T04:39:41.573Z,13.40
2018-11-07T04:42:09.176Z,14.13
2018-11-07T04:44:36.681Z,12.60
2018-11-07T04:47:04.471Z,13.80
2018-11-07T04:49:31.983Z,12.20
2018-11-07T04:51:59.624Z,11.37
2018-11-07T04:54:27.212Z,12.97
2018-11-07T04:56:54.760Z,11.57
2018-11-07T04:59:22.507Z,12.43
2018-11-07T05:01:49.953Z,12.30
2018-11-07T05:04:17.360Z,13.60
2018-11-07T05:06:45.012Z,12.67
2018-11-07T05:09:12.522Z,12.77
2018-11-07T05:11:39.976Z,11.90
2018-11-07T05:14:07.524Z,12.33
2018-11-07T05:16:35.176Z,12.80
2018-11-07T05:19:03.060Z,11.83
2018-11-07T05:21:30.670Z,12.70
2018-11-07T05:23:58.772Z,14.00
2018-11-07T05:26:26.901Z,13.00
2018-11-07T05:28:54.408Z,12.00
2018-11-07T05:31:21.923Z,12.23
2018-11-07T05:33:49.536Z,11.63
2018-11-07T05:36:17.009Z,12.17
2018-11-07T05:38:45.311Z,11.10
2018-11-07T05:41:13.100Z,13.20
2018-11-07T05:43:40.624Z,11.60
2018-11-07T05:46:08.151Z,12.80
2018-11-07T05:48:36.774Z,13.30
2018-11-07T05:51:04.746Z,12.83
2018-11-07T05:53:32.281Z,12.30
2018-11-07T05:55:59.844Z,11.40
2018-11-07T05:58:27.428Z,11.83
2018-11-07T06:00:57.571Z,11.93
2018-11-07T06:03:25.101Z,12.33
2018-11-07T06:05:52.629Z,13.30
2018-11-07T06:08:20.584Z,12.40
2018-11-07T06:10:48.112Z,12.10
2018-11-07T06:13:15.789Z,12.70
2018-11-07T06:15:43.319Z,12.30
2018-11-07T06:18:10.932Z,11.30
2018-11-07T06:20:39.102Z,11.80
2018-11-07T06:23:06.703Z,11.40
2018-11-07T06:25:35.094Z,10.40
2018-11-07T06:28:02.734Z,13.47
2018-11-07T06:30:30.218Z,11.60
2018-11-07T06:32:57.850Z,11.40
2018-11-07T06:35:26.098Z,10.83
2018-11-07T06:37:53.845Z,11.03
2018-11-07T06:40:24.476Z,10.80
2018-11-07T06:42:52.394Z,11.43
2018-11-07T06:45:20.138Z,12.30
2018-11-07T06:47:47.729Z,11.40
2018-11-07T06:50:15.363Z,11.60
2018-11-07T06:52:43.386Z,12.20
2018-11-07T06:55:11.477Z,13.00
2018-11-07T06:57:39.720Z,13.20
2018-11-07T07:00:08.370Z,13.00
2018-11-07T07:02:38.933Z,11.63
2018-11-07T07:05:07.077Z,13.53
2018-11-07T07:07:34.784Z,12.13
2018-11-07T07:10:02.475Z,13.93
2018-11-07T07:12:30.380Z,12.50
2018-11-07T07:14:57.933Z,12.60
2018-11-07T07:17:25.471Z,12.37
2018-11-07T07:19:53.050Z,13.50
2018-11-07T07:22:20.581Z,12.90
2018-11-07T07:24:48.267Z,13.33
2018-11-07T07:27:16.384Z,12.07
2018-11-07T07:29:45.932Z,11.60
2018-11-07T07:32:14.074Z,11.90
2018-11-07T07:34:41.683Z,11.87
2018-11-07T07:37:09.190Z,11.77
2018-11-07T07:39:36.708Z,10.87
2018-11-07T07:42:04.676Z,11.87
2018-11-07T07:44:33.844Z,11.27
2018-11-07T07:47:02.122Z,11.93
2018-11-07T07:49:29.904Z,13.03
2018-11-07T07:51:57.404Z,12.60
2018-11-07T07:54:25.799Z,11.90
2018-11-07T07:56:53.319Z,12.53
2018-11-07T07:59:20.957Z,13.40
2018-11-07T08:01:49.034Z,13.40
2018-11-07T08:04:16.580Z,13.20
2018-11-07T08:06:44.181Z,13.87
2018-11-07T08:09:13.048Z,13.90
2018-11-07T08:11:40.747Z,13.20
2018-11-07T08:14:08.985Z,15.10
2018-11-07T08:16:36.674Z,13.70
2018-11-07T08:19:04.760Z,14.73
2018-11-07T08:21:32.372Z,14.17
2018-11-07T08:23:59.912Z,14.23
2018-11-07T08:26:27.435Z,14.50
2018-11-07T08:28:54.921Z,12.43
2018-11-07T08:31:22.484Z,14.40
2018-11-07T08:33:49.984Z,15.57
2018-11-07T08:36:17.585Z,17.13
2018-11-07T08:38:45.314Z,15.57
2018-11-07T08:41:13.372Z,15.70
2018-11-07T08:43:41.035Z,15.30
2018-11-07T08:46:08.926Z,16.27
2018-11-07T08:48:36.415Z,15.87
2018-11-07T08:51:04.189Z,15.20
2018-11-07T08:53:31.681Z,15.90
2018-11-07T08:55:59.240Z,15.73
2018-11-07T08:58:26.857Z,15.53
2018-11-07T09:00:54.651Z,15.40
2018-11-07T09:03:22.220Z,16.07
2018-11-07T09:05:49.680Z,15.67
2018-11-07T09:08:17.867Z,16.20
2018-11-07T09:10:45.342Z,15.83
2018-11-07T09:13:12.995Z,16.13
2018-11-07T09:15:40.652Z,15.73
2018-11-07T09:18:08.247Z,17.40
2018-11-07T09:20:35.856Z,16.67
2018-11-07T09:23:03.374Z,17.23
2018-11-07T09:25:30.857Z,15.57
2018-11-07T09:27:58.384Z,14.10
2018-11-07T09:30:25.895Z,14.40
2018-11-07T09:32:53.367Z,14.90
2018-11-07T09:35:21.067Z,18.80
2018-11-07T09:37:48.479Z,15.33
2018-11-07T09:40:17.189Z,17.03
2018-11-07T09:42:45.373Z,14.50
2018-11-07T09:45:14.154Z,14.90
2018-11-07T09:47:42.436Z,14.80
2018-11-07T09:50:10.864Z,14.30
2018-11-07T09:52:38.560Z,15.67
2018-11-07T09:55:07.541Z,14.57
2018-11-07T09:57:35.064Z,16.57
2018-11-07T10:00:02.535Z,16.00
2018-11-07T10:02:30.069Z,16.80
2018-11-07T10:04:57.593Z,15.70
2018-11-07T10:07:25.065Z,13.33
2018-11-07T10:09:52.551Z,15.97
2018-11-07T10:12:20.039Z,15.00
2018-11-07T10:14:47.543Z,15.70
2018-11-07T10:17:15.040Z,15.17
2018-11-07T10:19:42.532Z,16.30
2018-11-07T10:22:10.059Z,16.70
2018-11-07T10:24:37.581Z,16.53
2018-11-07T10:27:05.239Z,15.80
2018-11-07T10:29:32.767Z,16.00
2018-11-07T10:32:00.135Z,15.63
2018-11-07T10:34:27.721Z,16.53
2018-11-07T10:36:55.241Z,18.30
2018-11-07T10:39:22.709Z,15.27
2018-11-07T10:41:50.161Z,13.23
2018-11-07T10:44:17.737Z,12.37
2018-11-07T10:46:45.204Z,13.87
2018-11-07T10:49:12.950Z,13.90
2018-11-07T10:51:40.395Z,12.70
2018-11-07T10:54:07.889Z,13.00
2018-11-07T10:56:35.415Z,12.03
2018-11-07T10:59:02.984Z,13.03
2018-11-07T11:01:36.117Z,13.37
2018-11-07T11:04:03.723Z,13.53
2018-11-07T11:06:31.234Z,20.10
2018-11-07T11:08:58.666Z,20.33
2018-11-07T11:11:26.265Z,17.97
2018-11-07T11:13:53.632Z,16.90
2018-11-07T11:16:21.058Z,19.00
2018-11-07T11:18:48.507Z,15.30
2018-11-07T11:21:15.952Z,15.40
2018-11-07T11:23:43.405Z,15.00
2018-11-07T11:26:10.784Z,17.20
2018-11-07T11:28:38.183Z,16.10
2018-11-07T11:31:05.946Z,19.77
2018-11-07T11:33:33.400Z,19.33
2018-11-07T11:36:00.810Z,15.33
2018-11-07T11:38:28.216Z,16.10
2018-11-07T11:40:55.731Z,16.70
2018-11-07T11:43:23.193Z,14.83
2018-11-07T11:45:50.624Z,18.97
2018-11-07T11:48:18.142Z,14.63
2018-11-07T11:50:45.604Z,15.50
2018-11-07T11:53:13.156Z,13.47
2018-11-07T11:55:40.978Z,14.30
2018-11-07T11:58:08.349Z,13.20
2018-11-07T12:00:35.879Z,14.03
2018-11-07T12:03:03.630Z,14.07
2018-11-07T12:05:31.178Z,14.77
2018-11-07T12:07:59.268Z,14.30
2018-11-07T12:10:26.778Z,14.20
2018-11-07T12:12:55.918Z,16.50
2018-11-07T12:15:24.487Z,16.80
2018-11-07T12:17:52.252Z,20.80
2018-11-07T12:20:19.625Z,23.00
2018-11-07T12:22:47.113Z,17.20
2018-11-07T12:25:15.300Z,18.67
2018-11-07T12:27:43.120Z,22.33
2018-11-07T12:30:12.121Z,20.00
2018-11-07T12:32:39.667Z,15.17
2018-11-07T12:35:07.134Z,15.87
2018-11-07T12:37:34.551Z,16.03
2018-11-07T12:40:01.995Z,12.50
2018-11-07T12:42:29.417Z,12.87
2018-11-07T12:44:56.819Z,16.50
2018-11-07T12:47:24.342Z,12.33
2018-11-07T12:49:51.905Z,16.20
2018-11-07T12:52:19.305Z,13.03
2018-11-07T12:54:46.770Z,14.37
2018-11-07T12:57:14.239Z,14.17
2018-11-07T12:59:41.644Z,13.20
2018-11-07T13:02:09.113Z,11.87
2018-11-07T13:04:36.770Z,11.63
2018-11-07T13:07:04.231Z,17.50
2018-11-07T13:09:31.646Z,14.07
2018-11-07T13:11:59.067Z,12.30
2018-11-07T13:14:26.615Z,10.10
2018-11-07T13:16:54.171Z,8.33
2018-11-07T13:19:21.722Z,8.53
2018-11-07T13:21:49.150Z,8.30
2018-11-07T13:24:16.579Z,8.70
2018-11-07T13:26:44.053Z,8.50
2018-11-07T13:29:11.516Z,46.23
2018-11-07T13:31:39.029Z,18.63
2018-11-07T13:34:06.592Z,10.27
2018-11-07T13:36:34.051Z,15.57
2018-11-07T13:39:01.847Z,14.70
2018-11-07T13:41:28.816Z,14.53
2018-11-07T13:43:56.183Z,13.53
2018-11-07T13:46:23.596Z,15.10
2018-11-07T13:48:50.940Z,14.87
2018-11-07T13:51:18.368Z,11.20
2018-11-07T13:53:45.875Z,11.13
2018-11-07T13:56:13.375Z,12.20
2018-11-07T13:58:40.871Z,8.20
2018-11-07T14:01:08.374Z,9.50
2018-11-07T14:03:35.805Z,7.90
2018-11-07T14:06:03.467Z,9.80
2018-11-07T14:08:30.959Z,9.87
2018-11-07T14:11:21.814Z,10.30
2018-11-07T14:14:00.560Z,10.17
2018-11-07T14:16:29.110Z,9.80
2018-11-07T14:18:56.597Z,10.20
2018-11-07T14:21:24.144Z,10.30
2018-11-07T14:23:51.585Z,10.10
2018-11-07T14:26:19.313Z,9.77
2018-11-07T14:28:46.889Z,10.20
2018-11-07T14:31:14.311Z,10.07
2018-11-07T14:33:41.740Z,11.97
2018-11-07T14:36:09.249Z,10.43
2018-11-07T14:38:36.655Z,9.77
2018-11-07T14:41:04.004Z,9.57
2018-11-07T14:43:31.497Z,9.30
2018-11-07T14:45:59.025Z,10.90
2018-11-07T14:48:26.547Z,9.70
2018-11-07T14:50:54.064Z,10.80
2018-11-07T14:53:21.597Z,10.37
2018-11-07T14:55:49.122Z,11.03
2018-11-07T14:58:16.586Z,10.20
2018-11-07T15:00:44.071Z,10.80
2018-11-07T15:03:11.457Z,14.20
2018-11-07T15:05:39.003Z,10.47
2018-11-07T15:08:06.402Z,11.70
2018-11-07T15:10:33.826Z,9.93
2018-11-07T15:13:01.255Z,11.67
2018-11-07T15:15:28.797Z,10.70
2018-11-07T15:17:56.287Z,11.93
2018-11-07T15:20:23.791Z,10.33
2018-11-07T15:22:51.325Z,10.90
2018-11-07T15:25:18.888Z,10.60
2018-11-07T15:27:47.113Z,11.53
2018-11-07T15:30:15.347Z,11.60
2018-11-07T15:32:43.400Z,10.13
2018-11-07T15:35:11.351Z,11.33
2018-11-07T15:37:39.421Z,11.40
2018-11-07T15:40:08.942Z,10.53
2018-11-07T15:42:36.479Z,10.80
2018-11-07T15:45:04.594Z,11.03
2018-11-07T15:47:32.084Z,11.30
2018-11-07T15:50:05.103Z,11.13
2018-11-07T15:52:32.720Z,11.33
2018-11-07T15:55:00.101Z,10.50
2018-11-07T15:57:27.550Z,11.80
2018-11-07T15:59:55.123Z,12.30
2018-11-07T16:02:22.621Z,13.70
2018-11-07T16:04:50.034Z,11.17
2018-11-07T16:07:17.584Z,11.60
2018-11-07T16:09:45.121Z,11.10
2018-11-07T16:12:12.645Z,12.50
2018-11-07T16:14:40.177Z,11.20
2018-11-07T16:17:07.707Z,12.40
2018-11-07T16:19:35.162Z,13.30
2018-11-07T16:22:02.687Z,12.50
2018-11-07T16:24:30.261Z,13.13
2018-11-07T16:26:57.787Z,12.20
2018-11-07T16:29:26.203Z,10.93
2018-11-07T16:31:53.634Z,10.80
2018-11-07T16:34:21.153Z,10.03
2018-11-07T16:36:48.769Z,10.33
2018-11-07T16:39:16.281Z,9.90
2018-11-07T16:41:43.910Z,9.47
2018-11-07T16:44:11.346Z,9.00
2018-11-07T16:46:38.811Z,10.10
2018-11-07T16:49:06.376Z,9.10
2018-11-07T16:51:33.800Z,10.80
2018-11-07T16:54:01.654Z,10.17
2018-11-07T16:56:29.141Z,10.40
2018-11-07T16:58:56.778Z,9.47
2018-11-07T17:01:24.219Z,9.33
2018-11-07T17:03:51.901Z,9.93
2018-11-07T17:06:19.430Z,10.50
2018-11-07T17:08:46.841Z,11.10
2018-11-07T17:11:14.273Z,12.80
2018-11-07T17:13:42.591Z,9.77
2018-11-07T17:16:10.099Z,8.73
2018-11-07T17:18:37.661Z,10.07
2018-11-07T17:21:05.154Z,8.50
2018-11-07T17:23:32.707Z,11.50
2018-11-07T17:26:00.171Z,11.27
2018-11-07T17:28:27.713Z,11.33
2018-11-07T17:30:55.242Z,11.23
2018-11-07T17:33:22.782Z,9.90
2018-11-07T17:35:50.333Z,9.77
2018-11-07T17:38:17.933Z,11.10
2018-11-07T17:40:45.499Z,11.83
2018-11-07T17:43:12.969Z,10.67
2018-11-07T17:45:40.344Z,9.70
2018-11-07T17:48:07.886Z,10.90
2018-11-07T17:50:35.392Z,10.20
2018-11-07T17:53:02.926Z,10.83
2018-11-07T17:55:30.449Z,11.13
2018-11-07T17:57:57.997Z,11.07
2018-11-07T18:00:30.949Z,10.13
2018-11-07T18:02:58.530Z,10.73
2018-11-07T18:05:26.042Z,10.37
2018-11-07T18:07:53.635Z,10.63
2018-11-07T18:10:21.369Z,10.97
2018-11-07T18:12:48.880Z,11.50
2018-11-07T18:15:17.882Z,9.63
2018-11-07T18:17:45.467Z,8.90
2018-11-07T18:20:14.067Z,10.63
2018-11-07T18:22:41.629Z,10.00
2018-11-07T18:25:10.332Z,12.20
2018-11-07T18:27:40.432Z,13.43
2018-11-07T18:32:55.893Z,10.57
2018-11-07T18:35:23.748Z,10.30
2018-11-07T18:37:51.242Z,9.70
2018-11-07T18:40:20.106Z,10.20
2018-11-07T18:42:49.011Z,10.13
2018-11-07T18:45:18.150Z,9.90
2018-11-07T18:47:46.323Z,9.60
2018-11-07T18:50:17.485Z,10.60
2018-11-07T18:52:45.248Z,8.80
2018-11-07T18:55:14.063Z,9.20
2018-11-07T18:57:43.238Z,8.93
2018-11-07T19:00:13.658Z,9.40
2018-11-07T19:02:42.258Z,8.90
2018-11-07T19:05:10.340Z,8.40
2018-11-07T19:07:38.204Z,9.80
2018-11-07T19:10:09.294Z,8.40
2018-11-07T19:12:37.080Z,8.17
2018-11-07T19:15:06.081Z,7.70
2018-11-07T19:17:33.667Z,6.90
2018-11-07T19:20:01.391Z,5.40
2018-11-07T19:22:30.149Z,6.00
2018-11-07T19:24:57.721Z,5.57
2018-11-07T19:27:27.928Z,4.87
2018-11-07T19:30:05.533Z,4.10
2018-11-07T19:32:33.240Z,3.63
2018-11-07T19:35:00.939Z,4.57
2018-11-07T19:37:34.246Z,4.50
2018-11-07T19:40:03.505Z,5.30
2018-11-07T19:42:33.272Z,5.60
2018-11-07T19:45:00.867Z,5.50
2018-11-07T19:47:28.393Z,5.30
2018-11-07T19:49:56.937Z,5.73
2018-11-07T19:52:25.281Z,6.13
2018-11-07T19:54:54.154Z,6.23
2018-11-07T19:57:22.930Z,6.63
2018-11-07T19:59:50.585Z,5.87
2018-11-07T20:02:18.274Z,6.17
2018-11-07T20:04:46.101Z,5.97
2018-11-07T20:07:14.205Z,6.80
2018-11-07T20:09:42.093Z,6.60
2018-11-07T20:12:09.863Z,8.67
2018-11-07T20:14:37.506Z,7.67
2018-11-07T20:17:05.210Z,8.13
2018-11-07T20:19:32.728Z,10.33
2018-11-07T20:22:00.844Z,8.00
2018-11-07T20:24:29.942Z,7.93
2018-11-07T20:26:59.849Z,7.17
2018-11-07T20:29:27.623Z,8.30
2018-11-07T20:31:55.225Z,8.70
2018-11-07T20:34:22.837Z,8.73
2018-11-07T20:36:51.515Z,9.50
2018-11-07T20:39:27.083Z,9.30
2018-11-07T20:41:54.751Z,10.10
2018-11-07T20:44:23.384Z,8.20
2018-11-07T20:46:51.802Z,10.53
2018-11-07T20:49:19.997Z,9.40
2018-11-07T20:51:47.568Z,9.77
2018-11-07T20:54:15.098Z,8.23
2018-11-07T20:56:44.780Z,7.57
2018-11-07T20:59:12.506Z,9.27
2018-11-07T21:01:40.921Z,7.20
2018-11-07T21:04:08.741Z,6.20
2018-11-07T21:06:36.244Z,6.63
2018-11-07T21:09:06.301Z,4.53
2018-11-07T21:11:33.914Z,5.47
2018-11-07T21:14:01.391Z,5.23
2018-11-07T21:16:30.006Z,6.23
2018-11-07T21:19:14.269Z,6.27
2018-11-07T21:21:41.791Z,4.60
2018-11-07T21:24:09.688Z,4.70
2018-11-07T21:26:40.594Z,4.60
2018-11-07T21:29:09.239Z,4.90
2018-11-07T21:31:37.965Z,4.60
2018-11-07T21:34:06.162Z,5.00
2018-11-07T21:36:33.773Z,4.70
2018-11-07T21:39:04.032Z,5.60
2018-11-07T21:41:31.623Z,5.03
2018-11-07T21:43:59.567Z,5.23
2018-11-07T21:46:30.390Z,5.20
2018-11-07T21:48:58.754Z,4.13
2018-11-07T21:51:27.406Z,5.30
2018-11-07T21:53:55.196Z,5.43
2018-11-07T21:56:22.802Z,5.57
2018-11-07T21:58:50.525Z,5.13
2018-11-07T22:01:19.692Z,5.80
2018-11-07T22:03:47.355Z,5.30
2018-11-07T22:06:15.227Z,4.90
2018-11-07T22:08:43.114Z,5.17
2018-11-07T22:11:11.649Z,5.50
2018-11-07T22:13:41.830Z,5.10
2018-11-07T22:16:10.159Z,4.70
2018-11-07T22:18:37.866Z,4.50
2018-11-07T22:21:05.970Z,5.33
2018-11-07T22:23:33.513Z,5.70
2018-11-07T22:26:01.198Z,5.13
2018-11-07T22:28:28.757Z,5.67
2018-11-07T22:30:57.672Z,5.30
2018-11-07T22:33:25.216Z,5.70
2018-11-07T22:35:52.746Z,5.50
2018-11-07T22:38:20.296Z,5.57
2018-11-07T22:40:48.356Z,5.53
2018-11-07T22:43:16.074Z,4.87
2018-11-07T22:45:43.721Z,5.57
2018-11-07T22:48:11.266Z,6.27
2018-11-07T22:50:39.746Z,5.27
2018-11-07T22:53:07.240Z,4.67
2018-11-07T22:55:36.331Z,5.00
2018-11-07T22:58:03.892Z,4.83
2018-11-07T23:00:37.812Z,5.63
2018-11-07T23:03:05.404Z,5.40
2018-11-07T23:05:34.083Z,5.70
2018-11-07T23:08:01.596Z,5.40
2018-11-07T23:10:29.965Z,5.60
2018-11-07T23:12:57.619Z,5.87
2018-11-07T23:15:30.841Z,5.33
2018-11-07T23:17:58.473Z,6.90
2018-11-07T23:20:25.994Z,4.90
2018-11-07T23:22:53.575Z,5.10
2018-11-07T23:25:21.150Z,5.37
2018-11-07T23:27:48.768Z,5.23
2018-11-07T23:30:16.354Z,5.40
2018-11-07T23:32:43.883Z,6.10
2018-11-07T23:35:11.493Z,5.90
2018-11-07T23:37:38.992Z,5.40
2018-11-07T23:40:06.907Z,5.70
2018-11-07T23:42:34.727Z,5.70
2018-11-07T23:45:02.517Z,6.40
2018-11-07T23:47:30.046Z,6.30
2018-11-07T23:49:57.521Z,6.00
2018-11-07T23:52:30.744Z,6.43
2018-11-07T23:54:58.281Z,5.40
2018-11-07T23:57:26.231Z,5.30
2018-11-07T23:59:53.680Z,6.23
